Terminal Aerodrome Forecast
Issued by NWS Wilmington, OH

Current Version | Previous Version | Graphics & Text | Print | Product List | Glossary On
Versions: 1 2 3 4 5 6 7 8 9 10 11 12 13 14 15 16 17
308
FTUS41 KILN 242325
TAFDAY
TAF
KDAY 242325Z 2500/2524 20004KT P6SM FEW250
     FM250700 18004KT P6SM BKN070
     FM251300 20008KT P6SM VCSH BKN050
     FM251900 21010KT P6SM BKN040=

USA.gov is the U.S. government's official web portal to all federal, state and local government web resources and services.